CheckWX is a tool to help pilots better visualize weather data.  It is not intended as a substitute for an official pre-flight weather briefing.

12:12:33 UTC

KHDC TAF
Hammond Northshore Regional Airport
Hammond, Louisiana, USA
KHDC 281120Z 2812/2912 00000KT P6SM SKC FM281500 00000KT P6SM BKN080 FM290400 VRB03KT P6SM VCSH BKN080 FM290700 13005KT P6SM -SHRA OVC025 FM290900 13005KT P6SM -SHRA OVC015

Jan-28@
12:00 UTC

Jan-28 @ 12:00 UTC

Jan-28@
15:00 UTC

Jan-28 @ 15:00 UTC

KHDC 281120Z 2812/2912 00000KT P6SM SKC
Cloud Levels
  • Clear skies

Jan-28@
15:00 UTC

Jan-28 @ 15:00 UTC

Jan-29@
04:00 UTC

Jan-29 @ 04:00 UTC

FM281500 00000KT P6SM BKN080

From

From Standard forecast or significant change

Cloud Levels
  • Broken at 8,000' AGL

Jan-29@
04:00 UTC

Jan-29 @ 04:00 UTC

Jan-29@
07:00 UTC

Jan-29 @ 07:00 UTC

FM290400 VRB03KT P6SM VCSH BKN080

From

From Standard forecast or significant change

Wind
  • Variable at 3 KTS
Cloud Levels
  • Broken at 8,000' AGL

Jan-29@
07:00 UTC

Jan-29 @ 07:00 UTC

Jan-29@
09:00 UTC

Jan-29 @ 09:00 UTC

FM290700 13005KT P6SM -SHRA OVC025

From

From Standard forecast or significant change

Wind
  • 130° at 5 KTS
Conditions
Light Rain
Cloud Levels
  • Overcast at 2,500' AGL

Jan-29@
09:00 UTC

Jan-29 @ 09:00 UTC

Jan-29@
12:00 UTC

Jan-29 @ 12:00 UTC

FM290900 13005KT P6SM -SHRA OVC015

From

From Standard forecast or significant change

Wind
  • 130° at 5 KTS
Conditions
Light Rain
Cloud Levels
  • Overcast at 1,500' AGL